Data for 08/07/2014

Time Sea-Level Adjusted Pressure Absolute Pressure Temperature Relative Humidity Dew Point   
(mb) (inHg) (mb) (inHg) (C) (F) (%) (C) (F)
00:05 1020 30.12 849 25.07 15 59 61 7.5 45.5
00:10 1020 30.12 849 25.07 15.1 59.2 61 7.6 45.7
00:15 1020 30.12 849 25.07 15 59 60 7.5 45.4
00:20 1020 30.12 850 25.1 15.1 59.2 65 8.6 47.5
00:25 1020 30.12 850 25.1 15.4 59.7 59 7.6 45.7
00:30 1020 30.12 850 25.1 15.5 59.9 58 7.4 45.4
00:35 1020 30.12 850 25.1 15.3 59.5 59 7.4 45.3
00:40 1020 30.12 850 25.1 15.1 59.1 60 7.4 45.3
00:45 1020 30.12 850 25.1 14.9 58.9 60 7.2 45
00:50 1020 30.12 850 25.1 15 59 59 7.1 44.7
00:55 1020 30.12 850 25.1 15.2 59.3 58 6.9 44.4
01:00 1020 30.12 850 25.1 15.2 59.3 63 8.3 46.9
01:05 1020 30.12 850 25.1 15.1 59.1 59 7.2 45
01:10 1020 30.12 850 25.1 15.1 59.1 58 7 44.6
01:15 1020 30.12 850 25.1 15.2 59.4 58 7.1 44.7
01:20 1020 30.12 850 25.1 15.4 59.7 57 7 44.6
01:25 1021 30.15 850 25.1 15.3 59.5 59 7.3 45.2
01:30 1021 30.15 850 25.1 15 58.9 60 7.3 45.2
01:35 1021 30.15 850 25.1 14.9 58.8 61 7.5 45.4
01:40 1021 30.15 850 25.1 14.8 58.6 61 7.3 45.1
01:45 1021 30.15 850 25.1 14.5 58.2 61 7.3 45.1
01:50 1021 30.15 850 25.1 14.5 58 62 7.2 45
01:55 1020 30.12 850 25.1 14.4 57.9 62 7.2 44.9
02:00 1020 30.12 850 25.1 14.4 57.9 62 7.2 45
02:05 1020 30.12 850 25.1 14.3 57.7 63 7.3 45.2
02:10 1020 30.12 850 25.1 14.3 57.7 63 7.3 45.2
02:15 1020 30.12 850 25.1 14.2 57.6 62 7.1 44.8
02:20 1020 30.12 850 25.1 14.6 58.3 60 7 44.6
02:25 1020 30.12 850 25.1 14.8 58.7 60 7.1 44.8
02:30 1020 30.12 850 25.1 14.8 58.6 60 7.3 45.1
02:35 1020 30.12 849 25.07 14.7 58.4 61 7.3 45.2
02:40 1020 30.12 850 25.1 14.7 58.5 61 7.4 45.4
02:45 1020 30.12 850 25.1 14.6 58.2 61 7.3 45.1
02:50 1020 30.12 850 25.1 14.4 58 61 7.1 44.7
02:55 1020 30.12 850 25.1 14.6 58.4 61 7.2 44.9
03:00 1020 30.12 850 25.1 14.6 58.3 62 7.6 45.6
03:05 1020 30.12 850 25.1 14.4 58 63 7.5 45.5
03:10 1020 30.12 850 25.1 14.3 57.7 63 7.4 45.4
03:15 1020 30.12 850 25.1 14.2 57.5 64 7.6 45.6
03:20 1020 30.12 850 25.1 13.9 57.1 64 7.3 45.1
03:25 1021 30.15 850 25.1 14 57.2 64 7.3 45.1
03:30 1021 30.15 850 25.1 14 57.2 64 7.4 45.3
03:35 1021 30.15 850 25.1 14 57.2 64 7.4 45.3
03:40 1021 30.15 850 25.1 13.9 56.9 64 7.1 44.8
03:45 1021 30.15 850 25.1 14 57.3 62 7 44.6
03:50 1021 30.15 850 25.1 14.5 58 61 7.1 44.8
03:55 1021 30.15 850 25.1 15.3 59.5 58 7.2 45
04:00 1021 30.15 850 25.1 15.3 59.5 60 7.5 45.6
04:05 1021 30.15 850 25.1 15 58.9 61 7.6 45.7
04:10 1021 30.15 850 25.1 14.6 58.4 63 7.7 45.9
04:15 1021 30.15 850 25.1 14.3 57.8 63 7.6 45.6
04:20 1021 30.15 850 25.1 14.2 57.5 64 7.6 45.6
04:25 1021 30.15 850 25.1 14.1 57.3 65 7.7 45.8
04:30 1021 30.15 850 25.1 13.8 56.8 66 7.5 45.5
04:35 1021 30.15 850 25.1 13.2 55.8 66 7.1 44.7
04:40 1021 30.15 850 25.1 13.7 56.6 63 6.8 44.3
04:45 1021 30.15 850 25.1 13.7 56.6 63 6.8 44.3
04:50 1021 30.15 850 25.1 13.3 56 64 6.8 44.2
04:55 1021 30.15 850 25.1 13.1 55.5 64 6.4 43.6
05:00 1021 30.15 850 25.1 13 55.4 64 6.5 43.6
05:05 1021 30.15 850 25.1 12.9 55.2 65 6.6 43.9
05:10 1021 30.15 850 25.1 12.7 54.8 66 6.6 43.9
05:15 1021 30.15 850 25.1 12.6 54.7 67 6.6 43.9
05:20 1021 30.15 850 25.1 12.5 54.5 68 6.7 44.1
05:25 1021 30.15 850 25.1 12.1 53.9 68 6.5 43.7
05:30 1021 30.15 850 25.1 12 53.5 69 6.5 43.7
05:35 1021 30.15 850 25.1 11.9 53.4 70 6.5 43.8
05:40 1021 30.15 850 25.1 11.8 53.2 70 6.6 43.9
05:45 1021 30.15 850 25.1 11.7 53 71 6.6 43.9
05:50 1021 30.15 850 25.1 11.8 53.2 70 6.5 43.6
05:55 1021 30.15 850 25.1 12.2 53.9 67 6.3 43.3
06:00 1021 30.15 851 25.13 12.6 54.7 67 6.7 44.1
06:05 1021 30.15 851 25.13 12.7 54.9 67 6.7 44
06:10 1021 30.15 851 25.13 12.9 55.2 66 6.8 44.3
06:15 1021 30.15 851 25.13 13.2 55.8 65 6.9 44.5
06:20 1021 30.15 851 25.13 13.4 56.2 65 7 44.6
06:25 1021 30.15 851 25.13 13.7 56.6 64 7.1 44.8
06:30 1021 30.15 851 25.13 14 57.2 63 7.1 44.7
06:35 1021 30.15 851 25.13 14.2 57.6 62 7.2 45
06:40 1021 30.15 851 25.13 14.7 58.4 62 7.6 45.6
06:45 1021 30.15 851 25.13 14.7 58.5 62 7.6 45.6
06:50 1021 30.15 851 25.13 15 58.9 61 7.7 45.8
06:55 1021 30.15 851 25.13 15.3 59.6 60 7.7 45.9
07:00 1021 30.15 851 25.13 15.9 60.6 59 8 46.4
07:05 1021 30.15 851 25.13 16 60.9 59 8.1 46.6
07:10 1021 30.15 851 25.13 16.5 61.6 58 8.2 46.7
07:15 1021 30.15 851 25.13 16.6 62 58 8.5 47.2
07:20 1021 30.15 851 25.13 16.3 61.4 59 8.4 47.1
07:25 1021 30.15 851 25.13 16.2 61.2 60 8.4 47.2
07:30 1021 30.15 851 25.13 16.5 61.7 59 8.6 47.4
07:35 1021 30.15 851 25.13 16.6 61.8 61 9 48.3
07:40 1022 30.18 851 25.13 16.8 62.2 59 8.8 47.8
07:45 1022 30.18 851 25.13 16.9 62.5 60 9.2 48.5
07:50 1022 30.18 851 25.13 17.4 63.4 57 8.8 47.9
07:55 1022 30.18 851 25.13 18 64.5 56 9.1 48.5
08:00 1022 30.18 851 25.13 18.1 64.7 54 8.7 47.7
08:05 1022 30.18 851 25.13 18.7 65.7 50 8.3 46.9
08:10 1022 30.18 851 25.13 19.9 67.8 46 8.1 46.5
08:15 1022 30.18 851 25.13 20.3 68.6 47 8.8 47.9
08:20 1021 30.15 851 25.13 20.1 68.1 46 8.3 46.9
08:25 1021 30.15 851 25.13 20.4 68.8 45 8.1 46.6
08:30 1021 30.15 851 25.13 20.8 69.5 44 8.5 47.2
08:35 1021 30.15 851 25.13 21 69.8 43 8 46.4
08:40 1021 30.15 851 25.13 21.3 70.3 43 8.3 47
08:45 1021 30.15 851 25.13 21.7 71 41 8.1 46.7
08:50 1021 30.15 851 25.13 22.2 72 38 7.5 45.4
08:55 1021 30.15 851 25.13 22.4 72.3 40 8.4 47.2
09:00 1021 30.15 851 25.13 22.2 72 40 8.3 46.9
09:05 1021 30.15 851 25.13 21.9 71.4 41 8.3 47
09:10 1021 30.15 851 25.13 21.4 70.6 42 8.2 46.7
09:15 1021 30.15 851 25.13 21.9 71.4 40 7.9 46.3
09:20 1021 30.15 850 25.1 22 71.5 41 8.2 46.8
09:25 1021 30.15 850 25.1 23 73.4 38 8.3 46.9
09:30 1021 30.15 850 25.1 23.3 73.9 38 8.3 47
09:35 1021 30.15 850 25.1 23 73.5 37 7.9 46.2
09:40 1021 30.15 850 25.1 23.6 74.5 36 7.8 46
09:45 1021 30.15 850 25.1 23.7 74.7 36 8.1 46.6
09:50 1021 30.15 850 25.1 23.3 74 37 8 46.4
09:55 1021 30.15 850 25.1 23.7 74.6 33 6.9 44.4
10:00 1021 30.15 850 25.1 23.8 74.8 33 6.9 44.4
10:05 1021 30.15 850 25.1 24.1 75.3 34 7.4 45.3
10:10 1021 30.15 850 25.1 24.5 76 32 7 44.6
10:15 1021 30.15 850 25.1 24.5 76 33 7.2 44.9
10:20 1021 30.15 850 25.1 24.2 75.6 34 7.5 45.5
10:25 1021 30.15 850 25.1 24.8 76.7 31 6.6 43.9
10:30 1021 30.15 850 25.1 24.3 75.7 32 6.8 44.2
10:35 1021 30.15 850 25.1 24.8 76.6 31 6.9 44.4
10:40 1021 30.15 850 25.1 25.1 77.2 31 7.1 44.8
10:45 1021 30.15 850 25.1 25.3 77.5 30 6.8 44.2
10:50 1021 30.15 850 25.1 25.5 77.9 30 7 44.6
10:55 1021 30.15 850 25.1 25.3 77.6 31 7.2 45
11:00 1021 30.15 850 25.1 24.7 76.4 32 7 44.6
11:05 1021 30.15 850 25.1 24.5 76 31 6.6 43.8
11:10 1021 30.15 850 25.1 25.3 77.5 29 6 42.9
11:15 1021 30.15 850 25.1 25.9 78.5 29 6.5 43.7
11:20 1021 30.15 850 25.1 26.5 79.6 28 6.8 44.2
11:25 1021 30.15 850 25.1 26 78.8 29 6.9 44.4
11:30 1020 30.12 850 25.1 26.2 79.2 28 6.3 43.4
11:35 1020 30.12 850 25.1 26.6 79.8 27 6.4 43.5
11:40 1020 30.12 849 25.07 26.5 79.6 28 6.6 43.9
11:45 1020 30.12 849 25.07 26.7 80 28 6.8 44.2
11:50 1020 30.12 849 25.07 26.5 79.7 28 6.8 44.2
11:55 1020 30.12 849 25.07 26.7 80.1 27 6.7 44
12:00 1020 30.12 849 25.07 27 80.5 28 7.4 45.3
12:05 1020 30.12 849 25.07 27.3 81.1 27 7.2 44.9
12:10 1020 30.12 849 25.07 27.3 81.1 27 6.9 44.4
12:15 1020 30.12 849 25.07 27.1 80.9 27 6.9 44.4
12:20 1020 30.12 849 25.07 27.5 81.5 27 7.1 44.9
12:25 1020 30.12 849 25.07 27.1 80.7 27 6.7 44.1
12:30 1020 30.12 849 25.07 27.3 81.1 26 6.5 43.7
12:35 1020 30.12 849 25.07 26.8 80.2 26 6 42.8
12:40 1020 30.12 849 25.07 26.2 79.2 26 5.7 42.2
12:45 1020 30.12 849 25.07 26.9 80.4 25 5.6 42
12:50 1020 30.12 849 25.07 27.7 81.9 25 6.2 43.1
12:55 1020 30.12 849 25.07 27.8 82 25 6 42.9
13:00 1019 30.09 849 25.07 28.2 82.7 24 6.1 42.9
13:05 1019 30.09 849 25.07 28.3 82.9 24 6.1 43
13:10 1019 30.09 849 25.07 28.6 83.4 22 5.1 41.1
13:15 1019 30.09 849 25.07 28.2 82.7 25 6.9 44.4
13:20 1019 30.09 849 25.07 27.4 81.2 25 5.8 42.4
13:25 1019 30.09 848 25.04 27.7 81.8 24 5.7 42.3
13:30 1019 30.09 848 25.04 27.5 81.4 25 5.9 42.6
13:35 1019 30.09 848 25.04 27.6 81.7 23 4.9 40.8
13:40 1019 30.09 848 25.04 28 82.4 22 4.8 40.7
13:45 1019 30.09 848 25.04 28.6 83.5 23 5.7 42.3
13:50 1019 30.09 848 25.04 29.2 84.5 22 5.8 42.4
13:55 1019 30.09 848 25.04 28.2 82.8 23 5.6 42
14:00 1019 30.09 848 25.04 27.9 82.2 23 5.2 41.4
14:05 1019 30.09 848 25.04 27.6 81.7 23 5 41.1
14:10 1019 30.09 848 25.04 27.7 81.8 21 3.9 38.9
14:15 1019 30.09 848 25.04 27.7 81.8 21 3.9 39.1
14:20 1019 30.09 848 25.04 28.3 82.9 19 2.9 37.2
14:25 1019 30.09 848 25.04 28.9 84 21 4.5 40.2
14:30 1019 30.09 848 25.04 29.5 85 20 4.7 40.5
14:35 1019 30.09 848 25.04 29.6 85.3 20 4.6 40.3
14:40 1019 30.09 848 25.04 29.6 85.3 17 2.3 36.1
14:45 1019 30.09 848 25.04 29.4 85 17 2.1 35.8
14:50 1019 30.09 848 25.04 29.8 85.6 21 5.4 41.7
14:55 1019 30.09 848 25.04 27.6 81.7 25 6.2 43.2
15:00 1019 30.09 848 25.04 27.1 80.8 25 5.9 42.6
15:05 1019 30.09 848 25.04 26.9 80.5 25 5.4 41.7
15:10 1019 30.09 848 25.04 27.1 80.9 24 5.4 41.7
15:15 1019 30.09 848 25.04 27.9 82.2 23 5.2 41.4
15:20 1019 30.09 848 25.04 27.5 81.4 27 6.9 44.4
15:25 1019 30.09 848 25.04 27.1 80.8 26 6 42.9
15:30 1018 30.06 848 25.04 26.9 80.4 25 5.5 42
15:35 1018 30.06 848 25.04 26.9 80.3 25 5.3 41.6
15:40 1018 30.06 848 25.04 27.2 80.9 24 5 41.1
15:45 1018 30.06 847 25.01 27.2 81 21 3.5 38.3
15:50 1018 30.06 847 25.01 27.2 80.9 21 3.5 38.3
15:55 1018 30.06 847 25.01 27.4 81.3 21 3.8 38.8
16:00 1018 30.06 847 25.01 28 82.4 20 3.3 37.9
16:05 1018 30.06 847 25.01 27.6 81.6 23 4.8 40.7
16:10 1018 30.06 847 25.01 27.2 81 23 4.8 40.6
16:15 1018 30.06 847 25.01 27.2 81 25 6 42.8
16:20 1018 30.06 847 25.01 26.5 79.8 27 6.1 43
16:25 1018 30.06 847 25.01 26.7 80.1 29 7.4 45.3
16:30 1018 30.06 847 25.01 26.3 79.3 32 8.6 47.4
16:35 1018 30.06 847 25.01 25.7 78.2 34 9.1 48.3
16:40 1018 30.06 847 25.01 25.1 77.2 34 8.5 47.2
16:45 1018 30.06 847 25.01 25.5 77.9 32 7.8 46
16:50 1018 30.06 847 25.01 26.2 79.1 30 7.3 45.2
16:55 1018 30.06 847 25.01 26.6 79.8 28 6.8 44.2
17:00 1018 30.06 847 25.01 26.2 79.1 29 7.1 44.9
17:05 1018 30.06 847 25.01 25.5 78 31 7.2 45
17:10 1018 30.06 847 25.01 25.5 78 30 7.2 44.9
17:15 1018 30.06 847 25.01 24.9 76.9 32 7.2 45
17:20 1018 30.06 847 25.01 24.5 76 32 6.8 44.3
17:25 1018 30.06 847 25.01 24.2 75.6 32 6.8 44.3
17:30 1018 30.06 848 25.04 24.1 75.3 33 6.9 44.5
17:35 1018 30.06 847 25.01 23.9 75 33 6.9 44.4
17:40 1018 30.06 847 25.01 23.7 74.6 34 7.1 44.8
17:45 1018 30.06 847 25.01 23.6 74.5 33 6.7 44.1
17:50 1018 30.06 847 25.01 23.5 74.3 34 6.9 44.3
17:55 1018 30.06 847 25.01 23.4 74.2 33 6.6 43.9
18:00 1018 30.06 847 25.01 23.3 74 34 6.8 44.2
18:05 1018 30.06 847 25.01 23.2 73.7 35 6.9 44.4
18:10 1018 30.06 847 25.01 23 73.5 35 6.8 44.2
18:15 1018 30.06 847 25.01 23 73.4 34 6.5 43.7
18:20 1018 30.06 847 25.01 23.1 73.5 34 6.3 43.4
18:25 1018 30.06 848 25.04 23.2 73.7 34 6.4 43.6
18:30 1018 30.06 848 25.04 23.2 73.7 34 6.6 43.9
18:35 1019 30.09 848 25.04 23.2 73.7 33 6.4 43.5
18:40 1018 30.06 848 25.04 23.3 74 33 6.4 43.4
18:45 1018 30.06 848 25.04 23.5 74.3 32 5.9 42.6
18:50 1018 30.06 848 25.04 23.8 74.8 31 5.6 42.2
18:55 1018 30.06 848 25.04 23.8 74.8 32 6.3 43.3
19:00 1018 30.06 848 25.04 23.7 74.6 32 6.1 42.9
19:05 1018 30.06 848 25.04 23.6 74.5 32 6.3 43.3
19:10 1019 30.09 848 25.04 23.5 74.3 32 5.9 42.6
19:15 1019 30.09 848 25.04 23.3 74 32 5.9 42.6
19:20 1019 30.09 848 25.04 23.2 73.7 33 6.1 42.9
19:25 1019 30.09 848 25.04 23 73.4 33 6.2 43.2
19:30 1019 30.09 848 25.04 22.9 73.1 34 6.3 43.3
19:35 1019 30.09 848 25.04 22.8 73 34 6.4 43.5
19:40 1019 30.09 848 25.04 22.6 72.7 35 6.4 43.6
19:45 1019 30.09 848 25.04 22.3 72.2 38 7.4 45.3
19:50 1019 30.09 848 25.04 21.9 71.3 39 7.4 45.3
19:55 1019 30.09 848 25.04 21.6 70.9 39 7.3 45.2
20:00 1019 30.09 848 25.04 21.5 70.7 40 7.3 45.2
20:05 1019 30.09 848 25.04 21.4 70.5 39 7.1 44.8
20:10 1019 30.09 848 25.04 21.3 70.3 40 7.1 44.9
20:15 1019 30.09 848 25.04 21.2 70.2 39 7 44.7
20:20 1019 30.09 848 25.04 21.1 69.9 40 7.1 44.9
20:25 1019 30.09 848 25.04 20.9 69.6 41 7.3 45.2
20:30 1019 30.09 848 25.04 20.8 69.4 41 7.2 44.9
20:35 1019 30.09 848 25.04 20.7 69.3 41 7.2 45
20:40 1019 30.09 848 25.04 20.6 69.1 43 7.8 46.1
20:45 1019 30.09 848 25.04 20.4 68.8 45 8.2 46.7
20:50 1019 30.09 848 25.04 20.1 68.2 44 7.6 45.6
20:55 1019 30.09 848 25.04 20.3 68.6 41 6.8 44.2
21:00 1019 30.09 848 25.04 20.7 69.3 40 6.7 44.1
21:05 1019 30.09 848 25.04 20.6 69.1 41 7.2 45
21:10 1019 30.09 848 25.04 20.3 68.5 43 7.4 45.2
21:15 1019 30.09 848 25.04 20 68 43 7.3 45.1
21:20 1019 30.09 848 25.04 19.9 67.7 43 7.2 45
21:25 1019 30.09 848 25.04 19.7 67.5 45 7.4 45.4
21:30 1019 30.09 848 25.04 19.5 67 45 7.3 45.2
21:35 1019 30.09 848 25.04 19.4 66.9 44 7 44.6
21:40 1019 30.09 848 25.04 19.4 66.8 44 6.9 44.5
21:45 1019 30.09 848 25.04 19.4 66.9 44 6.8 44.3
21:50 1019 30.09 848 25.04 19.3 66.7 47 7.9 46.1
21:55 1019 30.09 848 25.04 19 66.2 47 7.5 45.6
22:00 1019 30.09 848 25.04 19.1 66.3 44 6.7 44
22:05 1019 30.09 848 25.04 19.2 66.5 44 6.9 44.4
22:10 1019 30.09 848 25.04 19 66.1 45 7 44.6
22:15 1019 30.09 848 25.04 18.8 65.8 45 6.7 44
22:20 1019 30.09 848 25.04 18.8 65.8 45 6.8 44.2
22:25 1019 30.09 848 25.04 18.6 65.5 46 6.9 44.4
22:30 1019 30.09 848 25.04 18.5 65.2 47 7.1 44.7
22:35 1019 30.09 848 25.04 18.1 64.6 48 7.1 44.8
22:40 1019 30.09 848 25.04 17.8 64 49 7 44.5
22:45 1019 30.09 848 25.04 17.7 63.9 49 7 44.6
22:50 1019 30.09 848 25.04 17.7 63.9 48 6.8 44.3
22:55 1019 30.09 848 25.04 17.8 64.1 49 7 44.5
23:00 1019 30.09 848 25.04 17.7 63.9 50 7.4 45.3
23:05 1019 30.09 848 25.04 17.8 64 49 6.9 44.5
23:10 1019 30.09 848 25.04 17.9 64.2 49 7.1 44.9
23:15 1019 30.09 849 25.07 17.8 64.1 49 7 44.5
23:20 1019 30.09 849 25.07 17.6 63.7 48 6.6 43.9
23:25 1019 30.09 849 25.07 17.6 63.7 48 6.7 44.1
23:30 1019 30.09 849 25.07 17.5 63.4 49 6.9 44.4
23:35 1019 30.09 849 25.07 17 62.6 50 6.5 43.7
23:40 1019 30.09 849 25.07 17 62.7 50 6.7 44.1
23:45 1020 30.12 849 25.07 17 62.5 50 6.5 43.6
23:50 1020 30.12 849 25.07 17 62.6 50 6.6 43.8
23:55 1020 30.12 849 25.07 17.1 62.7 51 6.8 44.3
24:00 1020 30.12 849 25.07 17.1 62.8 50 6.8 44.3